createdAt,value
2023-04-18T00:00:01.979Z,75.50
2023-04-18T00:05:00.538Z,76.33
2023-04-18T00:10:01.819Z,74.51
2023-04-18T00:15:00.955Z,74.09
2023-04-18T00:20:00.436Z,72.87
2023-04-18T00:25:00.485Z,72.26
2023-04-18T00:30:00.415Z,72.09
2023-04-18T00:35:00.550Z,71.77
2023-04-18T00:40:00.462Z,70.86
2023-04-18T00:45:00.554Z,70.12
2023-04-18T00:50:00.549Z,69.23
2023-04-18T00:55:02.671Z,68.08
2023-04-18T01:00:04.681Z,67.91
2023-04-18T01:05:01.395Z,67.66
2023-04-18T01:10:00.990Z,67.43
2023-04-18T01:15:00.464Z,66.80
2023-04-18T01:20:01.317Z,66.49
2023-04-18T01:25:05.437Z,66.39
2023-04-18T01:30:00.453Z,66.52
2023-04-18T01:35:00.467Z,65.40
2023-04-18T01:40:00.461Z,65.79
2023-04-18T01:45:00.463Z,66.04
2023-04-18T01:50:00.663Z,65.66
2023-04-18T01:55:00.764Z,64.97
2023-04-18T02:00:01.797Z,65.50
2023-04-18T02:05:00.565Z,65.30
2023-04-18T02:10:01.804Z,66.00
2023-04-18T02:15:00.478Z,65.73
2023-04-18T02:20:00.421Z,66.05
2023-04-18T02:25:00.428Z,65.93
2023-04-18T02:30:00.515Z,66.19
2023-04-18T02:35:00.610Z,66.04
2023-04-18T02:40:00.469Z,66.03
2023-04-18T02:45:00.430Z,66.12
2023-04-18T02:50:00.750Z,66.05
2023-04-18T02:55:00.437Z,65.97
2023-04-18T03:00:01.067Z,66.00
2023-04-18T03:05:00.490Z,66.04
2023-04-18T03:10:00.438Z,66.34
2023-04-18T03:15:00.528Z,66.48
2023-04-18T03:20:00.496Z,66.64
2023-04-18T03:25:00.430Z,66.63
2023-04-18T03:30:01.218Z,66.92
2023-04-18T03:35:00.864Z,67.10
2023-04-18T03:40:00.437Z,67.19
2023-04-18T03:45:00.590Z,67.39
2023-04-18T03:50:00.420Z,67.84
2023-04-18T03:55:00.430Z,68.15
2023-04-18T04:00:01.847Z,68.42
2023-04-18T04:05:00.483Z,68.22
2023-04-18T04:10:00.451Z,68.54
2023-04-18T04:15:00.607Z,68.30
2023-04-18T04:20:01.072Z,69.21
2023-04-18T04:25:00.479Z,68.90
2023-04-18T04:30:00.402Z,69.33
2023-04-18T04:35:00.552Z,69.66
2023-04-18T04:40:00.424Z,70.68
2023-04-18T04:45:00.765Z,69.95
2023-04-18T04:50:00.602Z,69.90
2023-04-18T04:55:00.402Z,70.07
2023-04-18T05:00:01.053Z,69.86
2023-04-18T05:05:00.430Z,69.88
2023-04-18T05:10:00.398Z,70.14
2023-04-18T05:15:00.693Z,69.64
2023-04-18T05:20:00.425Z,69.67
2023-04-18T05:25:00.709Z,69.39
2023-04-18T05:30:00.423Z,69.75
2023-04-18T05:35:00.468Z,69.52
2023-04-18T05:40:01.212Z,69.34
2023-04-18T05:45:00.610Z,69.16
2023-04-18T05:50:00.487Z,69.38
2023-04-18T05:55:00.420Z,69.08
2023-04-18T06:00:01.012Z,69.07
2023-04-18T06:05:00.638Z,69.24
2023-04-18T06:10:00.567Z,69.18
2023-04-18T06:15:00.416Z,69.12
2023-04-18T06:20:00.690Z,68.72
2023-04-18T06:25:00.419Z,68.90
2023-04-18T06:30:00.488Z,68.94
2023-04-18T06:35:00.553Z,68.83
2023-04-18T06:40:00.418Z,68.57
2023-04-18T06:45:00.423Z,68.36
2023-04-18T06:50:00.455Z,67.72
2023-04-18T06:55:00.421Z,68.47
2023-04-18T07:00:01.040Z,68.27
2023-04-18T07:05:00.458Z,67.88
2023-04-18T07:10:00.504Z,67.19
2023-04-18T07:15:00.487Z,67.71
2023-04-18T07:20:00.440Z,65.97
2023-04-18T07:25:00.432Z,65.02
2023-04-18T07:30:00.664Z,59.03
2023-04-18T07:35:01.396Z,59.77
2023-04-18T07:40:00.400Z,59.14
2023-04-18T07:45:00.433Z,60.00
2023-04-18T07:50:00.594Z,58.64
2023-04-18T07:55:00.600Z,55.49
2023-04-18T08:00:00.996Z,57.35
2023-04-18T08:05:00.686Z,58.36
2023-04-18T08:10:00.631Z,60.21
2023-04-18T08:15:00.479Z,60.84
2023-04-18T08:20:00.440Z,60.45
2023-04-18T08:25:04.967Z,60.37
2023-04-18T08:30:00.538Z,59.57
2023-04-18T08:35:00.455Z,58.92
2023-04-18T08:40:02.471Z,58.32
2023-04-18T08:45:00.476Z,58.32
2023-04-18T08:50:00.620Z,56.63
2023-04-18T08:55:00.595Z,57.63
2023-04-18T09:00:02.684Z,56.29
2023-04-18T09:05:09.153Z,54.27
2023-04-18T09:10:00.432Z,51.09
2023-04-18T09:15:10.114Z,48.11
2023-04-18T09:20:01.862Z,50.16
2023-04-18T09:25:00.440Z,49.91
2023-04-18T09:30:00.453Z,49.89
2023-04-18T09:35:03.532Z,47.37
2023-04-18T09:40:15.318Z,47.46
2023-04-18T09:45:04.079Z,48.62
2023-04-18T09:50:04.014Z,48.07
2023-04-18T09:55:02.605Z,47.71
2023-04-18T10:00:05.822Z,45.56
2023-04-18T10:05:03.816Z,46.22
2023-04-18T10:10:00.451Z,48.18
2023-04-18T10:15:00.806Z,50.27
2023-04-18T10:20:04.874Z,50.16
2023-04-18T10:25:00.402Z,50.90
2023-04-18T10:30:00.569Z,49.90
2023-04-18T10:35:00.507Z,50.58
2023-04-18T10:40:01.094Z,51.75
2023-04-18T10:45:20.320Z,51.38
2023-04-18T10:50:00.703Z,51.83
2023-04-18T10:55:08.300Z,50.94
2023-04-18T11:00:02.555Z,50.34
2023-04-18T11:05:02.288Z,51.05
2023-04-18T11:10:00.690Z,52.28
2023-04-18T11:15:02.041Z,53.36
2023-04-18T11:20:04.468Z,54.08
2023-04-18T11:25:06.334Z,55.39
2023-04-18T11:30:00.538Z,56.20
2023-04-18T11:35:01.567Z,56.51
2023-04-18T11:40:01.243Z,57.45
2023-04-18T11:45:00.969Z,57.23
2023-04-18T11:50:03.806Z,58.30
2023-04-18T11:55:12.664Z,58.86
2023-04-18T12:00:01.841Z,59.00
2023-04-18T12:05:00.693Z,59.08
2023-04-18T12:10:01.847Z,59.12
2023-04-18T12:15:06.105Z,59.31
2023-04-18T12:20:01.929Z,60.00
2023-04-18T12:25:12.293Z,59.83
2023-04-18T12:30:00.405Z,60.34
2023-04-18T12:35:00.457Z,60.63
2023-04-18T12:40:00.431Z,61.58
2023-04-18T12:45:00.458Z,60.38
2023-04-18T12:50:00.508Z,59.92
2023-04-18T12:55:00.447Z,59.96
2023-04-18T13:00:01.353Z,59.78
2023-04-18T13:05:00.431Z,59.00
2023-04-18T13:10:00.452Z,58.18
2023-04-18T13:15:00.558Z,58.52
2023-04-18T13:20:00.396Z,58.87
2023-04-18T13:25:00.497Z,58.47
2023-04-18T13:30:01.415Z,57.79
2023-04-18T13:35:00.470Z,57.54
2023-04-18T13:40:00.480Z,58.22
2023-04-18T13:45:00.473Z,58.03
2023-04-18T13:50:00.497Z,57.74
2023-04-18T13:55:00.439Z,57.46
2023-04-18T14:00:01.616Z,57.89
2023-04-18T14:05:00.654Z,58.48
2023-04-18T14:10:00.453Z,59.08
2023-04-18T14:15:00.410Z,59.39
2023-04-18T14:20:00.708Z,59.77
2023-04-18T14:25:00.486Z,58.89
2023-04-18T14:30:00.412Z,59.02
2023-04-18T14:35:03.684Z,59.00
2023-04-18T14:40:00.421Z,58.90
2023-04-18T14:45:00.405Z,59.96
2023-04-18T14:50:00.451Z,57.85
2023-04-18T14:55:00.547Z,57.80
2023-04-18T15:00:00.974Z,56.56
2023-04-18T15:10:00.826Z,55.98
2023-04-18T15:15:00.670Z,55.13
2023-04-18T15:20:00.766Z,53.50
2023-04-18T15:25:01.028Z,55.23
2023-04-18T15:30:01.114Z,55.60
2023-04-18T15:35:00.672Z,54.93
2023-04-18T15:40:01.104Z,54.88
2023-04-18T15:45:01.000Z,54.75
2023-04-18T15:50:00.813Z,54.34
2023-04-18T15:55:00.685Z,53.85
2023-04-18T16:00:01.763Z,54.29
2023-04-18T16:05:00.641Z,53.92
2023-04-18T16:10:00.699Z,52.56
2023-04-18T16:15:00.801Z,53.61
2023-04-18T16:20:00.908Z,53.84
2023-04-18T16:25:00.791Z,52.76
2023-04-18T16:30:01.389Z,52.55
2023-04-18T16:35:00.802Z,52.80
2023-04-18T16:40:01.864Z,53.78
2023-04-18T16:45:01.608Z,53.50
2023-04-18T16:50:00.818Z,54.48
2023-04-18T16:55:00.650Z,55.16
2023-04-18T17:00:01.716Z,55.64
2023-04-18T17:05:00.983Z,55.29
2023-04-18T17:10:00.702Z,55.40
2023-04-18T17:15:00.530Z,56.34
2023-04-18T17:20:00.456Z,56.93
2023-04-18T17:25:00.592Z,56.75
2023-04-18T17:30:00.617Z,57.42
2023-04-18T17:35:00.562Z,57.84
2023-04-18T17:40:00.533Z,58.30
2023-04-18T17:45:01.050Z,59.25
2023-04-18T17:50:00.619Z,59.49
2023-04-18T17:55:00.569Z,59.41
2023-04-18T18:00:01.768Z,60.11
2023-04-18T18:05:00.473Z,60.37
2023-04-18T18:10:00.477Z,60.66
2023-04-18T18:15:00.957Z,61.24
2023-04-18T18:20:00.495Z,61.67
2023-04-18T18:25:00.482Z,62.30
2023-04-18T18:30:00.959Z,62.65
2023-04-18T18:35:00.523Z,63.02
2023-04-18T18:40:02.383Z,63.46
2023-04-18T18:45:00.942Z,63.75
2023-04-18T18:50:00.622Z,64.20
2023-04-18T18:55:00.515Z,64.19
2023-04-18T19:00:01.025Z,64.66
2023-04-18T19:05:00.871Z,65.15
2023-04-18T19:10:00.542Z,65.42
2023-04-18T19:15:00.587Z,65.57
2023-04-18T19:20:00.521Z,65.97
2023-04-18T19:25:00.513Z,66.32
2023-04-18T19:30:00.647Z,66.59
2023-04-18T19:35:00.574Z,67.09
2023-04-18T19:40:00.606Z,66.83
2023-04-18T19:45:00.611Z,67.60
2023-04-18T19:50:00.464Z,67.48
2023-04-18T19:55:00.532Z,67.74
2023-04-18T20:00:01.855Z,67.56
2023-04-18T20:05:00.707Z,66.89
2023-04-18T20:10:00.708Z,67.14
2023-04-18T20:15:00.574Z,67.40
2023-04-18T20:20:00.475Z,68.12
2023-04-18T20:25:00.440Z,67.33
2023-04-18T20:30:00.510Z,67.80
2023-04-18T20:35:00.479Z,67.45
2023-04-18T20:40:00.493Z,67.20
2023-04-18T20:45:00.458Z,67.38
2023-04-18T20:50:00.555Z,67.33
2023-04-18T20:55:00.467Z,67.29
2023-04-18T21:00:01.117Z,67.48
2023-04-18T21:05:01.203Z,67.67
2023-04-18T21:10:00.785Z,67.73
2023-04-18T21:15:00.546Z,68.10
2023-04-18T21:20:00.481Z,67.91
2023-04-18T21:25:00.517Z,67.57
2023-04-18T21:30:02.377Z,68.52
2023-04-18T21:35:00.490Z,67.82
2023-04-18T21:40:00.488Z,68.15
2023-04-18T21:45:00.522Z,68.19
2023-04-18T21:50:02.107Z,68.38
2023-04-18T21:55:00.567Z,68.22
2023-04-18T22:00:01.088Z,68.20
2023-04-18T22:05:00.491Z,68.04
2023-04-18T22:10:00.488Z,68.11
2023-04-18T22:15:00.516Z,68.65
2023-04-18T22:20:00.451Z,68.25
2023-04-18T22:25:00.517Z,68.23
2023-04-18T22:30:00.559Z,68.14
2023-04-18T22:35:00.506Z,68.05
2023-04-18T22:40:00.605Z,68.21
2023-04-18T22:45:00.487Z,68.10
2023-04-18T22:50:00.521Z,68.22
2023-04-18T22:55:00.961Z,68.29
2023-04-18T23:00:02.023Z,68.58
2023-04-18T23:05:00.752Z,68.55
2023-04-18T23:10:00.490Z,68.82
2023-04-18T23:15:00.510Z,68.99
2023-04-18T23:20:00.671Z,69.43
2023-04-18T23:25:00.502Z,69.61
2023-04-18T23:30:00.503Z,69.60
2023-04-18T23:35:00.507Z,70.05
2023-04-18T23:40:00.513Z,69.44
2023-04-18T23:45:01.074Z,69.46
2023-04-18T23:50:00.530Z,69.53
2023-04-18T23:55:00.748Z,69.69
